sensor_id;sensor_type;location;lat;lon;timestamp;P1;durP1;ratioP1;P2;durP2;ratioP2
54823;SDS011;40724;53.196;5.980;2024-03-06T00:01:09;13.18;;;9.40;;
54823;SDS011;40724;53.196;5.980;2024-03-06T00:03:35;13.85;;;9.82;;
54823;SDS011;40724;53.196;5.980;2024-03-06T00:06:01;12.07;;;8.90;;
54823;SDS011;40724;53.196;5.980;2024-03-06T00:08:27;11.90;;;9.48;;
54823;SDS011;40724;53.196;5.980;2024-03-06T00:10:53;12.07;;;8.57;;
54823;SDS011;40724;53.196;5.980;2024-03-06T00:13:19;12.60;;;8.27;;
54823;SDS011;40724;53.196;5.980;2024-03-06T00:15:45;14.10;;;9.48;;
54823;SDS011;40724;53.196;5.980;2024-03-06T00:18:11;14.55;;;8.20;;
54823;SDS011;40724;53.196;5.980;2024-03-06T00:20:37;13.27;;;9.07;;
54823;SDS011;40724;53.196;5.980;2024-03-06T00:23:05;12.40;;;9.32;;
54823;SDS011;40724;53.196;5.980;2024-03-06T00:25:31;13.98;;;8.43;;
54823;SDS011;40724;53.196;5.980;2024-03-06T00:27:58;11.98;;;8.85;;
54823;SDS011;40724;53.196;5.980;2024-03-06T00:30:24;14.27;;;9.32;;
54823;SDS011;40724;53.196;5.980;2024-03-06T00:32:50;12.40;;;8.57;;
54823;SDS011;40724;53.196;5.980;2024-03-06T00:35:16;11.70;;;8.27;;
54823;SDS011;40724;53.196;5.980;2024-03-06T00:37:42;11.98;;;8.05;;
54823;SDS011;40724;53.196;5.980;2024-03-06T00:40:08;10.85;;;8.30;;
54823;SDS011;40724;53.196;5.980;2024-03-06T00:42:34;14.02;;;8.73;;
54823;SDS011;40724;53.196;5.980;2024-03-06T00:45:01;9.52;;;7.28;;
54823;SDS011;40724;53.196;5.980;2024-03-06T00:47:27;14.00;;;8.73;;
54823;SDS011;40724;53.196;5.980;2024-03-06T00:49:54;13.88;;;8.80;;
54823;SDS011;40724;53.196;5.980;2024-03-06T00:52:20;14.38;;;7.68;;
54823;SDS011;40724;53.196;5.980;2024-03-06T00:54:46;11.60;;;8.48;;
54823;SDS011;40724;53.196;5.980;2024-03-06T00:57:12;11.52;;;7.60;;
54823;SDS011;40724;53.196;5.980;2024-03-06T00:59:38;12.50;;;7.45;;
54823;SDS011;40724;53.196;5.980;2024-03-06T01:02:04;10.98;;;8.40;;
54823;SDS011;40724;53.196;5.980;2024-03-06T01:04:31;8.55;;;6.63;;
54823;SDS011;40724;53.196;5.980;2024-03-06T01:06:57;10.57;;;7.25;;
54823;SDS011;40724;53.196;5.980;2024-03-06T01:09:23;12.13;;;7.95;;
54823;SDS011;40724;53.196;5.980;2024-03-06T01:11:50;13.70;;;7.57;;
54823;SDS011;40724;53.196;5.980;2024-03-06T01:14:16;12.90;;;8.60;;
54823;SDS011;40724;53.196;5.980;2024-03-06T01:16:42;10.38;;;7.70;;
54823;SDS011;40724;53.196;5.980;2024-03-06T01:19:08;14.10;;;8.77;;
54823;SDS011;40724;53.196;5.980;2024-03-06T01:21:34;12.70;;;7.53;;
54823;SDS011;40724;53.196;5.980;2024-03-06T01:24:01;14.85;;;8.30;;
54823;SDS011;40724;53.196;5.980;2024-03-06T01:26:27;17.50;;;8.30;;
54823;SDS011;40724;53.196;5.980;2024-03-06T01:28:53;13.48;;;7.47;;
54823;SDS011;40724;53.196;5.980;2024-03-06T01:31:19;12.82;;;7.60;;
54823;SDS011;40724;53.196;5.980;2024-03-06T01:33:45;9.40;;;7.00;;
54823;SDS011;40724;53.196;5.980;2024-03-06T01:36:11;13.27;;;8.05;;
54823;SDS011;40724;53.196;5.980;2024-03-06T01:38:38;10.75;;;7.15;;
54823;SDS011;40724;53.196;5.980;2024-03-06T01:41:04;13.75;;;8.77;;
54823;SDS011;40724;53.196;5.980;2024-03-06T01:43:36;14.10;;;8.52;;
54823;SDS011;40724;53.196;5.980;2024-03-06T01:46:02;13.48;;;7.55;;
54823;SDS011;40724;53.196;5.980;2024-03-06T01:48:28;11.95;;;7.78;;
54823;SDS011;40724;53.196;5.980;2024-03-06T01:50:57;14.05;;;7.95;;
54823;SDS011;40724;53.196;5.980;2024-03-06T01:53:25;13.57;;;8.75;;
54823;SDS011;40724;53.196;5.980;2024-03-06T01:55:53;10.90;;;7.65;;
54823;SDS011;40724;53.196;5.980;2024-03-06T01:58:19;13.02;;;8.27;;
54823;SDS011;40724;53.196;5.980;2024-03-06T02:00:46;9.40;;;7.15;;
54823;SDS011;40724;53.196;5.980;2024-03-06T02:03:13;13.93;;;8.02;;
54823;SDS011;40724;53.196;5.980;2024-03-06T02:05:39;13.45;;;7.65;;
54823;SDS011;40724;53.196;5.980;2024-03-06T02:08:07;12.07;;;7.13;;
54823;SDS011;40724;53.196;5.980;2024-03-06T02:10:33;11.43;;;7.40;;
54823;SDS011;40724;53.196;5.980;2024-03-06T02:12:59;9.57;;;6.90;;
54823;SDS011;40724;53.196;5.980;2024-03-06T02:15:25;10.68;;;8.10;;
54823;SDS011;40724;53.196;5.980;2024-03-06T02:17:51;10.85;;;6.95;;
54823;SDS011;40724;53.196;5.980;2024-03-06T02:20:24;11.40;;;7.95;;
54823;SDS011;40724;53.196;5.980;2024-03-06T02:22:50;13.90;;;7.78;;
54823;SDS011;40724;53.196;5.980;2024-03-06T02:25:16;8.40;;;6.60;;
54823;SDS011;40724;53.196;5.980;2024-03-06T02:27:44;10.60;;;6.78;;
54823;SDS011;40724;53.196;5.980;2024-03-06T02:30:10;12.30;;;6.93;;
54823;SDS011;40724;53.196;5.980;2024-03-06T02:32:36;11.65;;;7.30;;
54823;SDS011;40724;53.196;5.980;2024-03-06T02:35:02;10.57;;;7.82;;
54823;SDS011;40724;53.196;5.980;2024-03-06T02:37:28;10.60;;;7.53;;
54823;SDS011;40724;53.196;5.980;2024-03-06T02:39:54;10.13;;;6.47;;
54823;SDS011;40724;53.196;5.980;2024-03-06T02:42:20;12.85;;;6.78;;
54823;SDS011;40724;53.196;5.980;2024-03-06T02:44:45;12.73;;;7.18;;
54823;SDS011;40724;53.196;5.980;2024-03-06T02:47:11;11.07;;;7.22;;
54823;SDS011;40724;53.196;5.980;2024-03-06T02:49:37;11.25;;;7.63;;
54823;SDS011;40724;53.196;5.980;2024-03-06T02:52:03;12.48;;;7.32;;
54823;SDS011;40724;53.196;5.980;2024-03-06T02:54:28;9.52;;;6.72;;
54823;SDS011;40724;53.196;5.980;2024-03-06T02:56:55;10.20;;;6.75;;
54823;SDS011;40724;53.196;5.980;2024-03-06T02:59:21;10.90;;;6.55;;
54823;SDS011;40724;53.196;5.980;2024-03-06T03:01:46;11.63;;;6.90;;
54823;SDS011;40724;53.196;5.980;2024-03-06T03:04:12;12.23;;;7.45;;
54823;SDS011;40724;53.196;5.980;2024-03-06T03:06:38;11.43;;;7.38;;
54823;SDS011;40724;53.196;5.980;2024-03-06T03:09:04;7.47;;;6.00;;
54823;SDS011;40724;53.196;5.980;2024-03-06T03:11:29;9.02;;;6.55;;
54823;SDS011;40724;53.196;5.980;2024-03-06T03:13:57;8.90;;;6.20;;
54823;SDS011;40724;53.196;5.980;2024-03-06T03:16:22;11.48;;;7.85;;
54823;SDS011;40724;53.196;5.980;2024-03-06T03:18:48;11.90;;;7.15;;
54823;SDS011;40724;53.196;5.980;2024-03-06T03:21:14;8.55;;;6.20;;
54823;SDS011;40724;53.196;5.980;2024-03-06T03:23:40;8.73;;;6.68;;
54823;SDS011;40724;53.196;5.980;2024-03-06T03:26:06;10.95;;;6.53;;
54823;SDS011;40724;53.196;5.980;2024-03-06T03:28:37;12.55;;;7.18;;
54823;SDS011;40724;53.196;5.980;2024-03-06T03:31:09;12.82;;;6.95;;
54823;SDS011;40724;53.196;5.980;2024-03-06T03:33:41;10.48;;;6.75;;
54823;SDS011;40724;53.196;5.980;2024-03-06T03:36:07;10.63;;;6.70;;
54823;SDS011;40724;53.196;5.980;2024-03-06T03:38:35;10.65;;;6.93;;
54823;SDS011;40724;53.196;5.980;2024-03-06T03:41:06;12.02;;;8.20;;
54823;SDS011;40724;53.196;5.980;2024-03-06T03:43:33;9.20;;;6.40;;
54823;SDS011;40724;53.196;5.980;2024-03-06T03:45:59;9.52;;;6.75;;
54823;SDS011;40724;53.196;5.980;2024-03-06T03:48:25;12.10;;;7.40;;
54823;SDS011;40724;53.196;5.980;2024-03-06T03:50:51;8.02;;;6.40;;
54823;SDS011;40724;53.196;5.980;2024-03-06T03:53:17;11.15;;;7.15;;
54823;SDS011;40724;53.196;5.980;2024-03-06T03:55:43;11.27;;;7.53;;
54823;SDS011;40724;53.196;5.980;2024-03-06T03:58:09;11.02;;;7.63;;
54823;SDS011;40724;53.196;5.980;2024-03-06T04:00:35;7.43;;;6.38;;
54823;SDS011;40724;53.196;5.980;2024-03-06T04:03:03;11.80;;;6.38;;
54823;SDS011;40724;53.196;5.980;2024-03-06T04:05:29;9.43;;;6.18;;
54823;SDS011;40724;53.196;5.980;2024-03-06T04:07:56;11.50;;;7.55;;
54823;SDS011;40724;53.196;5.980;2024-03-06T04:10:22;16.65;;;7.15;;
54823;SDS011;40724;53.196;5.980;2024-03-06T04:12:48;10.32;;;6.88;;
54823;SDS011;40724;53.196;5.980;2024-03-06T04:15:14;11.15;;;7.05;;
54823;SDS011;40724;53.196;5.980;2024-03-06T04:17:39;10.75;;;5.82;;
54823;SDS011;40724;53.196;5.980;2024-03-06T04:20:06;9.57;;;7.07;;
54823;SDS011;40724;53.196;5.980;2024-03-06T04:22:32;8.55;;;5.80;;
54823;SDS011;40724;53.196;5.980;2024-03-06T04:24:58;11.07;;;6.45;;
54823;SDS011;40724;53.196;5.980;2024-03-06T04:27:24;10.25;;;6.50;;
54823;SDS011;40724;53.196;5.980;2024-03-06T04:29:51;9.77;;;6.28;;
54823;SDS011;40724;53.196;5.980;2024-03-06T04:32:17;17.13;;;7.68;;
54823;SDS011;40724;53.196;5.980;2024-03-06T04:34:43;16.02;;;7.57;;
54823;SDS011;40724;53.196;5.980;2024-03-06T04:37:09;8.75;;;6.43;;
54823;SDS011;40724;53.196;5.980;2024-03-06T04:39:35;10.35;;;7.03;;
54823;SDS011;40724;53.196;5.980;2024-03-06T04:42:00;10.43;;;6.25;;
54823;SDS011;40724;53.196;5.980;2024-03-06T04:44:27;9.25;;;6.53;;
54823;SDS011;40724;53.196;5.980;2024-03-06T04:46:53;11.02;;;6.68;;
54823;SDS011;40724;53.196;5.980;2024-03-06T04:49:18;12.95;;;7.80;;
54823;SDS011;40724;53.196;5.980;2024-03-06T04:51:44;11.18;;;6.90;;
54823;SDS011;40724;53.196;5.980;2024-03-06T04:54:10;11.15;;;6.82;;
54823;SDS011;40724;53.196;5.980;2024-03-06T04:56:36;11.18;;;7.03;;
54823;SDS011;40724;53.196;5.980;2024-03-06T04:59:01;9.77;;;6.55;;
54823;SDS011;40724;53.196;5.980;2024-03-06T05:01:28;10.57;;;7.80;;
54823;SDS011;40724;53.196;5.980;2024-03-06T05:03:55;8.13;;;6.65;;
54823;SDS011;40724;53.196;5.980;2024-03-06T05:06:22;11.90;;;7.75;;
54823;SDS011;40724;53.196;5.980;2024-03-06T05:08:48;12.15;;;7.13;;
54823;SDS011;40724;53.196;5.980;2024-03-06T05:11:14;20.25;;;7.20;;
54823;SDS011;40724;53.196;5.980;2024-03-06T05:13:41;11.50;;;7.20;;
54823;SDS011;40724;53.196;5.980;2024-03-06T05:16:07;8.95;;;6.43;;
54823;SDS011;40724;53.196;5.980;2024-03-06T05:18:34;10.25;;;6.90;;
54823;SDS011;40724;53.196;5.980;2024-03-06T05:21:00;11.13;;;7.20;;
54823;SDS011;40724;53.196;5.980;2024-03-06T05:23:27;10.02;;;6.95;;
54823;SDS011;40724;53.196;5.980;2024-03-06T05:25:53;9.13;;;6.50;;
54823;SDS011;40724;53.196;5.980;2024-03-06T05:28:19;9.57;;;6.65;;
54823;SDS011;40724;53.196;5.980;2024-03-06T05:30:45;12.05;;;7.88;;
54823;SDS011;40724;53.196;5.980;2024-03-06T05:33:11;10.48;;;6.72;;
54823;SDS011;40724;53.196;5.980;2024-03-06T05:35:37;9.63;;;7.20;;
54823;SDS011;40724;53.196;5.980;2024-03-06T05:38:03;10.18;;;7.50;;
54823;SDS011;40724;53.196;5.980;2024-03-06T05:40:30;11.68;;;7.47;;
54823;SDS011;40724;53.196;5.980;2024-03-06T05:43:00;9.43;;;6.28;;
54823;SDS011;40724;53.196;5.980;2024-03-06T05:45:26;11.95;;;6.80;;
54823;SDS011;40724;53.196;5.980;2024-03-06T05:47:52;10.43;;;7.82;;
54823;SDS011;40724;53.196;5.980;2024-03-06T05:50:19;9.63;;;7.28;;
54823;SDS011;40724;53.196;5.980;2024-03-06T05:52:45;11.82;;;7.22;;
54823;SDS011;40724;53.196;5.980;2024-03-06T05:55:11;12.15;;;7.00;;
54823;SDS011;40724;53.196;5.980;2024-03-06T05:57:37;12.93;;;6.93;;
54823;SDS011;40724;53.196;5.980;2024-03-06T06:00:03;12.63;;;7.30;;
54823;SDS011;40724;53.196;5.980;2024-03-06T06:02:35;9.13;;;6.43;;
54823;SDS011;40724;53.196;5.980;2024-03-06T06:05:02;12.32;;;8.23;;
54823;SDS011;40724;53.196;5.980;2024-03-06T06:07:29;10.50;;;7.32;;
54823;SDS011;40724;53.196;5.980;2024-03-06T06:09:55;10.88;;;7.35;;
54823;SDS011;40724;53.196;5.980;2024-03-06T06:12:21;9.43;;;7.20;;
54823;SDS011;40724;53.196;5.980;2024-03-06T06:14:47;11.75;;;7.25;;
54823;SDS011;40724;53.196;5.980;2024-03-06T06:17:13;13.13;;;7.38;;
54823;SDS011;40724;53.196;5.980;2024-03-06T06:19:41;14.60;;;8.27;;
54823;SDS011;40724;53.196;5.980;2024-03-06T06:22:09;11.00;;;7.53;;
54823;SDS011;40724;53.196;5.980;2024-03-06T06:24:36;11.75;;;7.63;;
54823;SDS011;40724;53.196;5.980;2024-03-06T06:27:03;12.55;;;7.55;;
54823;SDS011;40724;53.196;5.980;2024-03-06T06:29:29;11.55;;;7.65;;
54823;SDS011;40724;53.196;5.980;2024-03-06T06:31:56;10.88;;;8.13;;
54823;SDS011;40724;53.196;5.980;2024-03-06T06:34:22;13.13;;;8.43;;
54823;SDS011;40724;53.196;5.980;2024-03-06T06:36:53;14.95;;;8.57;;
54823;SDS011;40724;53.196;5.980;2024-03-06T06:39:19;14.77;;;8.50;;
54823;SDS011;40724;53.196;5.980;2024-03-06T06:41:45;15.15;;;8.05;;
54823;SDS011;40724;53.196;5.980;2024-03-06T06:44:11;15.73;;;9.00;;
54823;SDS011;40724;53.196;5.980;2024-03-06T06:46:38;15.65;;;8.65;;
54823;SDS011;40724;53.196;5.980;2024-03-06T06:49:04;16.05;;;8.65;;
54823;SDS011;40724;53.196;5.980;2024-03-06T06:51:31;13.50;;;8.35;;
54823;SDS011;40724;53.196;5.980;2024-03-06T06:53:57;16.52;;;8.98;;
54823;SDS011;40724;53.196;5.980;2024-03-06T06:56:23;18.08;;;8.80;;
54823;SDS011;40724;53.196;5.980;2024-03-06T06:58:50;15.88;;;8.00;;
54823;SDS011;40724;53.196;5.980;2024-03-06T07:01:16;13.98;;;8.43;;
54823;SDS011;40724;53.196;5.980;2024-03-06T07:03:43;16.48;;;7.95;;
54823;SDS011;40724;53.196;5.980;2024-03-06T07:06:09;14.85;;;9.25;;
54823;SDS011;40724;53.196;5.980;2024-03-06T07:08:36;14.15;;;8.45;;
54823;SDS011;40724;53.196;5.980;2024-03-06T07:11:02;16.60;;;8.82;;
54823;SDS011;40724;53.196;5.980;2024-03-06T07:13:28;15.95;;;9.50;;
54823;SDS011;40724;53.196;5.980;2024-03-06T07:15:55;22.77;;;8.60;;
54823;SDS011;40724;53.196;5.980;2024-03-06T07:18:21;14.63;;;10.35;;
54823;SDS011;40724;53.196;5.980;2024-03-06T07:20:47;12.50;;;8.63;;
54823;SDS011;40724;53.196;5.980;2024-03-06T07:23:13;17.30;;;10.15;;
54823;SDS011;40724;53.196;5.980;2024-03-06T07:25:39;15.30;;;9.02;;
54823;SDS011;40724;53.196;5.980;2024-03-06T07:28:05;19.02;;;9.82;;
54823;SDS011;40724;53.196;5.980;2024-03-06T07:30:31;14.73;;;9.48;;
54823;SDS011;40724;53.196;5.980;2024-03-06T07:32:57;15.90;;;10.27;;
54823;SDS011;40724;53.196;5.980;2024-03-06T07:35:29;15.27;;;8.82;;
54823;SDS011;40724;53.196;5.980;2024-03-06T07:37:55;11.30;;;8.45;;
54823;SDS011;40724;53.196;5.980;2024-03-06T07:40:21;20.85;;;9.35;;
54823;SDS011;40724;53.196;5.980;2024-03-06T07:42:47;17.52;;;9.20;;
54823;SDS011;40724;53.196;5.980;2024-03-06T07:45:13;15.05;;;10.63;;
54823;SDS011;40724;53.196;5.980;2024-03-06T07:47:40;14.10;;;9.60;;
54823;SDS011;40724;53.196;5.980;2024-03-06T07:50:06;14.18;;;8.65;;
54823;SDS011;40724;53.196;5.980;2024-03-06T07:52:33;15.15;;;9.18;;
54823;SDS011;40724;53.196;5.980;2024-03-06T07:54:59;18.88;;;11.05;;
54823;SDS011;40724;53.196;5.980;2024-03-06T07:57:25;12.10;;;8.23;;
54823;SDS011;40724;53.196;5.980;2024-03-06T07:59:51;19.48;;;9.50;;
54823;SDS011;40724;53.196;5.980;2024-03-06T08:02:20;14.07;;;9.18;;
54823;SDS011;40724;53.196;5.980;2024-03-06T08:04:46;13.55;;;9.45;;
54823;SDS011;40724;53.196;5.980;2024-03-06T08:07:12;15.88;;;9.93;;
54823;SDS011;40724;53.196;5.980;2024-03-06T08:09:38;12.75;;;9.63;;
54823;SDS011;40724;53.196;5.980;2024-03-06T08:12:05;15.25;;;10.43;;
54823;SDS011;40724;53.196;5.980;2024-03-06T08:14:31;14.68;;;9.85;;
54823;SDS011;40724;53.196;5.980;2024-03-06T08:16:57;18.55;;;9.85;;
54823;SDS011;40724;53.196;5.980;2024-03-06T08:19:23;16.45;;;9.95;;
54823;SDS011;40724;53.196;5.980;2024-03-06T08:21:50;12.98;;;9.68;;
54823;SDS011;40724;53.196;5.980;2024-03-06T08:24:17;15.32;;;9.15;;
54823;SDS011;40724;53.196;5.980;2024-03-06T08:26:43;15.45;;;9.90;;
54823;SDS011;40724;53.196;5.980;2024-03-06T08:29:09;19.42;;;11.30;;
54823;SDS011;40724;53.196;5.980;2024-03-06T08:31:35;16.80;;;10.48;;
54823;SDS011;40724;53.196;5.980;2024-03-06T08:34:01;15.80;;;9.82;;
54823;SDS011;40724;53.196;5.980;2024-03-06T08:36:27;16.77;;;9.73;;
54823;SDS011;40724;53.196;5.980;2024-03-06T08:38:53;13.73;;;9.60;;
54823;SDS011;40724;53.196;5.980;2024-03-06T08:41:19;12.48;;;9.00;;
54823;SDS011;40724;53.196;5.980;2024-03-06T08:43:46;18.02;;;11.30;;
54823;SDS011;40724;53.196;5.980;2024-03-06T08:46:12;14.93;;;9.35;;
54823;SDS011;40724;53.196;5.980;2024-03-06T08:48:38;15.23;;;9.40;;
54823;SDS011;40724;53.196;5.980;2024-03-06T08:51:04;14.93;;;10.18;;
54823;SDS011;40724;53.196;5.980;2024-03-06T08:53:35;20.23;;;11.05;;
54823;SDS011;40724;53.196;5.980;2024-03-06T08:56:02;12.40;;;9.40;;
54823;SDS011;40724;53.196;5.980;2024-03-06T08:58:28;22.10;;;11.68;;
54823;SDS011;40724;53.196;5.980;2024-03-06T09:00:54;12.35;;;9.30;;
54823;SDS011;40724;53.196;5.980;2024-03-06T09:03:21;13.60;;;9.18;;
54823;SDS011;40724;53.196;5.980;2024-03-06T09:05:48;15.05;;;9.52;;
54823;SDS011;40724;53.196;5.980;2024-03-06T09:08:14;15.52;;;9.73;;
54823;SDS011;40724;53.196;5.980;2024-03-06T09:10:40;13.82;;;9.65;;
54823;SDS011;40724;53.196;5.980;2024-03-06T09:13:06;15.52;;;9.68;;
54823;SDS011;40724;53.196;5.980;2024-03-06T09:15:32;16.17;;;10.25;;
54823;SDS011;40724;53.196;5.980;2024-03-06T09:17:58;13.73;;;9.13;;
54823;SDS011;40724;53.196;5.980;2024-03-06T09:20:24;15.07;;;9.13;;
54823;SDS011;40724;53.196;5.980;2024-03-06T09:22:51;16.50;;;10.27;;
54823;SDS011;40724;53.196;5.980;2024-03-06T09:25:22;14.52;;;9.65;;
54823;SDS011;40724;53.196;5.980;2024-03-06T09:27:49;18.23;;;10.25;;
54823;SDS011;40724;53.196;5.980;2024-03-06T09:30:15;17.15;;;10.45;;
54823;SDS011;40724;53.196;5.980;2024-03-06T09:32:42;21.15;;;10.70;;
54823;SDS011;40724;53.196;5.980;2024-03-06T09:35:09;18.10;;;10.27;;
54823;SDS011;40724;53.196;5.980;2024-03-06T09:37:35;16.00;;;10.35;;
54823;SDS011;40724;53.196;5.980;2024-03-06T09:40:02;16.48;;;10.18;;
54823;SDS011;40724;53.196;5.980;2024-03-06T09:42:28;17.50;;;9.75;;
54823;SDS011;40724;53.196;5.980;2024-03-06T09:44:54;17.08;;;10.40;;
54823;SDS011;40724;53.196;5.980;2024-03-06T09:47:21;20.08;;;11.15;;
54823;SDS011;40724;53.196;5.980;2024-03-06T09:49:50;19.38;;;10.63;;
54823;SDS011;40724;53.196;5.980;2024-03-06T09:52:18;15.57;;;10.20;;
54823;SDS011;40724;53.196;5.980;2024-03-06T09:54:44;15.60;;;10.32;;
54823;SDS011;40724;53.196;5.980;2024-03-06T09:57:10;20.13;;;10.50;;
54823;SDS011;40724;53.196;5.980;2024-03-06T09:59:38;16.77;;;9.82;;
54823;SDS011;40724;53.196;5.980;2024-03-06T10:02:12;17.33;;;10.88;;
54823;SDS011;40724;53.196;5.980;2024-03-06T10:04:44;16.55;;;10.13;;
54823;SDS011;40724;53.196;5.980;2024-03-06T10:07:11;14.98;;;10.13;;
54823;SDS011;40724;53.196;5.980;2024-03-06T10:09:39;18.00;;;9.68;;
54823;SDS011;40724;53.196;5.980;2024-03-06T10:12:05;19.48;;;11.13;;
54823;SDS011;40724;53.196;5.980;2024-03-06T10:14:31;21.95;;;12.35;;
54823;SDS011;40724;53.196;5.980;2024-03-06T10:16:58;16.77;;;11.27;;
54823;SDS011;40724;53.196;5.980;2024-03-06T10:19:25;21.85;;;11.73;;
54823;SDS011;40724;53.196;5.980;2024-03-06T10:21:56;20.20;;;11.20;;
54823;SDS011;40724;53.196;5.980;2024-03-06T10:24:23;15.65;;;10.68;;
54823;SDS011;40724;53.196;5.980;2024-03-06T10:26:50;14.48;;;10.50;;
54823;SDS011;40724;53.196;5.980;2024-03-06T10:29:19;20.58;;;11.45;;
54823;SDS011;40724;53.196;5.980;2024-03-06T10:34:15;17.75;;;10.98;;
54823;SDS011;40724;53.196;5.980;2024-03-06T10:36:42;18.20;;;11.13;;
54823;SDS011;40724;53.196;5.980;2024-03-06T10:39:08;22.27;;;12.07;;
54823;SDS011;40724;53.196;5.980;2024-03-06T10:41:36;19.58;;;10.90;;
54823;SDS011;40724;53.196;5.980;2024-03-06T10:44:06;17.75;;;11.32;;
54823;SDS011;40724;53.196;5.980;2024-03-06T10:46:34;20.45;;;11.18;;
54823;SDS011;40724;53.196;5.980;2024-03-06T10:49:01;18.45;;;11.05;;
54823;SDS011;40724;53.196;5.980;2024-03-06T10:51:28;15.25;;;10.23;;
54823;SDS011;40724;53.196;5.980;2024-03-06T10:53:56;16.55;;;10.40;;
54823;SDS011;40724;53.196;5.980;2024-03-06T10:56:23;19.67;;;10.77;;
54823;SDS011;40724;53.196;5.980;2024-03-06T10:58:50;15.98;;;10.88;;
54823;SDS011;40724;53.196;5.980;2024-03-06T11:01:17;21.83;;;11.98;;
54823;SDS011;40724;53.196;5.980;2024-03-06T11:03:44;21.10;;;10.55;;
54823;SDS011;40724;53.196;5.980;2024-03-06T11:06:13;19.70;;;11.50;;
54823;SDS011;40724;53.196;5.980;2024-03-06T11:08:39;19.13;;;12.45;;
54823;SDS011;40724;53.196;5.980;2024-03-06T11:11:21;22.50;;;11.68;;
54823;SDS011;40724;53.196;5.980;2024-03-06T11:13:48;18.33;;;11.70;;
54823;SDS011;40724;53.196;5.980;2024-03-06T11:16:14;18.30;;;10.90;;
54823;SDS011;40724;53.196;5.980;2024-03-06T11:18:41;18.95;;;12.93;;
54823;SDS011;40724;53.196;5.980;2024-03-06T11:23:47;18.92;;;11.27;;
54823;SDS011;40724;53.196;5.980;2024-03-06T11:26:23;15.88;;;10.63;;
54823;SDS011;40724;53.196;5.980;2024-03-06T11:28:49;22.45;;;12.35;;
54823;SDS011;40724;53.196;5.980;2024-03-06T11:31:16;18.95;;;12.10;;
54823;SDS011;40724;53.196;5.980;2024-03-06T11:33:46;19.92;;;12.25;;
54823;SDS011;40724;53.196;5.980;2024-03-06T11:36:12;22.38;;;11.93;;
54823;SDS011;40724;53.196;5.980;2024-03-06T11:38:42;20.08;;;11.10;;
54823;SDS011;40724;53.196;5.980;2024-03-06T11:41:09;19.52;;;11.38;;
54823;SDS011;40724;53.196;5.980;2024-03-06T11:43:41;18.55;;;11.02;;
54823;SDS011;40724;53.196;5.980;2024-03-06T11:46:08;15.75;;;11.80;;
54823;SDS011;40724;53.196;5.980;2024-03-06T11:48:35;19.30;;;12.27;;
54823;SDS011;40724;53.196;5.980;2024-03-06T11:51:02;21.30;;;12.13;;
54823;SDS011;40724;53.196;5.980;2024-03-06T11:53:29;20.15;;;12.68;;
54823;SDS011;40724;53.196;5.980;2024-03-06T11:55:56;20.40;;;11.88;;
54823;SDS011;40724;53.196;5.980;2024-03-06T11:58:25;21.88;;;12.60;;
54823;SDS011;40724;53.196;5.980;2024-03-06T12:00:51;18.17;;;12.95;;
54823;SDS011;40724;53.196;5.980;2024-03-06T12:03:19;19.70;;;12.35;;
54823;SDS011;40724;53.196;5.980;2024-03-06T12:05:45;15.27;;;10.43;;
54823;SDS011;40724;53.196;5.980;2024-03-06T12:08:11;22.80;;;12.68;;
54823;SDS011;40724;53.196;5.980;2024-03-06T12:10:38;19.27;;;13.20;;
54823;SDS011;40724;53.196;5.980;2024-03-06T12:13:04;20.52;;;13.15;;
54823;SDS011;40724;53.196;5.980;2024-03-06T12:15:30;20.05;;;11.98;;
54823;SDS011;40724;53.196;5.980;2024-03-06T12:17:57;20.05;;;11.45;;
54823;SDS011;40724;53.196;5.980;2024-03-06T12:20:24;21.63;;;11.63;;
54823;SDS011;40724;53.196;5.980;2024-03-06T12:22:54;17.17;;;11.68;;
54823;SDS011;40724;53.196;5.980;2024-03-06T12:25:22;26.67;;;13.20;;
54823;SDS011;40724;53.196;5.980;2024-03-06T12:27:48;22.05;;;13.27;;
54823;SDS011;40724;53.196;5.980;2024-03-06T12:30:18;22.27;;;12.65;;
54823;SDS011;40724;53.196;5.980;2024-03-06T12:33:01;18.17;;;12.27;;
54823;SDS011;40724;53.196;5.980;2024-03-06T12:35:30;17.90;;;11.90;;
54823;SDS011;40724;53.196;5.980;2024-03-06T12:37:57;24.92;;;14.13;;
54823;SDS011;40724;53.196;5.980;2024-03-06T12:40:23;18.65;;;12.38;;
54823;SDS011;40724;53.196;5.980;2024-03-06T12:42:50;19.05;;;12.45;;
54823;SDS011;40724;53.196;5.980;2024-03-06T12:45:18;23.60;;;12.95;;
54823;SDS011;40724;53.196;5.980;2024-03-06T12:47:45;18.75;;;11.40;;
54823;SDS011;40724;53.196;5.980;2024-03-06T12:50:13;22.05;;;12.57;;
54823;SDS011;40724;53.196;5.980;2024-03-06T12:52:39;28.23;;;13.73;;
54823;SDS011;40724;53.196;5.980;2024-03-06T12:55:06;21.30;;;12.77;;
54823;SDS011;40724;53.196;5.980;2024-03-06T12:57:32;21.15;;;13.15;;
54823;SDS011;40724;53.196;5.980;2024-03-06T12:59:59;23.63;;;14.38;;
54823;SDS011;40724;53.196;5.980;2024-03-06T13:02:25;21.90;;;12.52;;
54823;SDS011;40724;53.196;5.980;2024-03-06T13:04:52;23.00;;;13.38;;
54823;SDS011;40724;53.196;5.980;2024-03-06T13:07:18;32.30;;;14.50;;
54823;SDS011;40724;53.196;5.980;2024-03-06T13:09:44;21.63;;;12.70;;
54823;SDS011;40724;53.196;5.980;2024-03-06T13:12:11;23.88;;;14.00;;
54823;SDS011;40724;53.196;5.980;2024-03-06T13:14:37;25.77;;;14.35;;
54823;SDS011;40724;53.196;5.980;2024-03-06T13:17:03;19.50;;;12.77;;
54823;SDS011;40724;53.196;5.980;2024-03-06T13:19:31;23.70;;;12.48;;
54823;SDS011;40724;53.196;5.980;2024-03-06T13:21:57;20.30;;;12.65;;
54823;SDS011;40724;53.196;5.980;2024-03-06T13:24:23;26.88;;;15.27;;
54823;SDS011;40724;53.196;5.980;2024-03-06T13:26:49;24.45;;;13.43;;
54823;SDS011;40724;53.196;5.980;2024-03-06T13:29:15;23.42;;;13.40;;
54823;SDS011;40724;53.196;5.980;2024-03-06T13:31:42;20.58;;;13.25;;
54823;SDS011;40724;53.196;5.980;2024-03-06T13:34:08;21.35;;;13.75;;
54823;SDS011;40724;53.196;5.980;2024-03-06T13:36:34;22.10;;;14.10;;
54823;SDS011;40724;53.196;5.980;2024-03-06T13:39:00;28.05;;;14.80;;
54823;SDS011;40724;53.196;5.980;2024-03-06T13:41:26;22.58;;;14.90;;
54823;SDS011;40724;53.196;5.980;2024-03-06T13:43:52;25.25;;;15.52;;
54823;SDS011;40724;53.196;5.980;2024-03-06T13:46:18;27.67;;;15.45;;
54823;SDS011;40724;53.196;5.980;2024-03-06T13:48:45;24.30;;;13.73;;
54823;SDS011;40724;53.196;5.980;2024-03-06T13:51:11;20.67;;;13.57;;
54823;SDS011;40724;53.196;5.980;2024-03-06T13:53:37;20.10;;;13.90;;
54823;SDS011;40724;53.196;5.980;2024-03-06T13:56:03;24.05;;;14.68;;
54823;SDS011;40724;53.196;5.980;2024-03-06T13:58:29;24.85;;;13.85;;
54823;SDS011;40724;53.196;5.980;2024-03-06T14:00:55;21.40;;;12.98;;
54823;SDS011;40724;53.196;5.980;2024-03-06T14:03:22;22.92;;;14.30;;
54823;SDS011;40724;53.196;5.980;2024-03-06T14:05:49;26.42;;;15.05;;
54823;SDS011;40724;53.196;5.980;2024-03-06T14:08:15;20.95;;;13.23;;
54823;SDS011;40724;53.196;5.980;2024-03-06T14:10:42;26.42;;;14.00;;
54823;SDS011;40724;53.196;5.980;2024-03-06T14:13:08;19.73;;;13.07;;
54823;SDS011;40724;53.196;5.980;2024-03-06T14:15:35;24.35;;;14.15;;
54823;SDS011;40724;53.196;5.980;2024-03-06T14:18:01;28.50;;;15.45;;
54823;SDS011;40724;53.196;5.980;2024-03-06T14:20:27;25.63;;;15.90;;
54823;SDS011;40724;53.196;5.980;2024-03-06T14:22:53;29.00;;;15.77;;
54823;SDS011;40724;53.196;5.980;2024-03-06T14:25:19;20.70;;;14.18;;
54823;SDS011;40724;53.196;5.980;2024-03-06T14:27:46;25.23;;;14.10;;
54823;SDS011;40724;53.196;5.980;2024-03-06T14:30:13;26.88;;;14.02;;
54823;SDS011;40724;53.196;5.980;2024-03-06T14:32:40;21.75;;;14.48;;